Terminal Aerodrome Forecast
Issued by NWS

Home | Current Version | Previous Version | Text Only | Print | Product List | Glossary On
Versions: 1 2 3 4 5 6 7 8 9 10 11 12 13 14
104
FTUS44 KBMX 281435 AAA
TAFMGM
TAF AMD
KMGM 281435Z 2815/2912 15009KT P6SM BKN015
     FM281800 17009G18KT P6SM SCT050
     FM282000 17010KT P6SM BKN150
     FM290600 14004KT 6SM HZ BR OVC015=

USA.gov is the U.S. government's official web portal to all federal, state and local government web resources and services.